Suederoog — ZDHC8 — position and weather

sailwx.info

Track history (hours):
 
Tides and Currents Weather Stations Pressure Air Temp Water Temp Dewpoint Dewpoint Depression Visibility Wind Speed Wind Dir Waves Ship Positions

Suederoog

Last reported at 2016-Sep-26 20:31 UTC. Time now 2016-Sep-27 00:13 UTC.
Position N 53°32' E 009°57'.

Length 161 m; draft 9.4 m.

Type: Cargo ship. MMSI: 236300000.

Date/timePositionNaut miles runAvg speedWind from/ knotsBaromVisibWave heightAir tempDewpointWater temp
2016-Sep-26 20:31N 53°32' E 009°57'0 0.0
2016-Sep-26 19:31N 53°32' E 009°57'0 0.0
2016-Sep-26 15:31N 53°32' E 009°57'0 0.0
2016-Sep-26 13:31N 53°32' E 009°57'0 0.0
2016-Sep-26 11:31N 53°32' E 009°57'0 0.0
2016-Sep-26 08:31N 53°32' E 009°57'0 0.0
2016-Sep-26 02:31N 53°32' E 009°57'0 0.0
2016-Sep-26 01:31N 53°32' E 009°57'0 0.0
2016-Sep-26 00:32N 53°32' E 009°57'0 0.0
2016-Sep-25 21:31N 53°32' E 009°57'2 0.4
2016-Sep-25 17:33N 53°32' E 009°54'0 0.3
2016-Sep-25 16:31N 53°32' E 009°55'0 0.0
2016-Sep-25 15:31N 53°32' E 009°55'0 0.0
2016-Sep-25 14:31N 53°32' E 009°55'0 0.0
2016-Sep-25 12:31N 53°32' E 009°55'0 0.0
2016-Sep-25 11:31N 53°32' E 009°55'0 0.0
2016-Sep-25 10:31N 53°32' E 009°55'0 0.0
2016-Sep-25 09:31N 53°32' E 009°55'0 0.0
2016-Sep-25 07:31N 53°32' E 009°55'0 0.0
2016-Sep-25 04:33N 53°32' E 009°55'35 8.7
2016-Sep-25 00:33N 53°54' E 009°09'8 3.9
2016-Sep-24 22:33N 53°60' E 009°17'7 6.8
2016-Sep-24 21:33N 54°06' E 009°20'11 5.5
2016-Sep-24 19:33N 54°13' E 009°35'6 5.6
2016-Sep-24 18:33N 54°17' E 009°40'6 6.0
2016-Sep-24 17:33N 54°22' E 009°48'6 5.9
2016-Sep-24 16:33N 54°21' E 009°58'7 3.2
2016-Sep-24 14:31N 54°22' E 010°09'14 7.3
2016-Sep-24 12:33N 54°32' E 010°26'2311.7
2016-Sep-24 10:33N 54°36' E 011°06'1111.2
2016-Sep-24 09:33N 54°32' E 011°24'8312.9
2016-Sep-24 03:07N 54°59' E 013°40'916.5
2016-Sep-24 02:33N 55°02' E 013°55'1616.3
2016-Sep-24 01:34N 55°13' E 014°17'1717.0
2016-Sep-24 00:34N 55°26' E 014°35'38516.7
2016-Sep-23 01:28N 59°40' E 023°35'1617.3
2016-Sep-23 00:33N 59°44' E 024°06'1717.2
2016-Sep-22 23:33N 59°49' E 024°39'5217.0
2016-Sep-22 20:29N 60°05' E 026°17'27 3.4
2016-Sep-22 12:33N 60°25' E 026°55'0 0.0
2016-Sep-22 04:33N 60°25' E 026°55'0 0.0
2016-Sep-22 03:33N 60°25' E 026°55'0 0.0
2016-Sep-22 00:33N 60°25' E 026°55'0 0.0
2016-Sep-21 23:33N 60°25' E 026°55'0 0.0
2016-Sep-21 22:33N 60°25' E 026°55'22 7.2
2016-Sep-21 19:28N 60°09' E 026°24'26 9.0
2016-Sep-21 16:32N 60°03' E 027°15'8111.6
2016-Sep-21 09:33N 59°56' E 029°56'9 8.9
2016-Sep-21 08:33N 59°53' E 030°12'1 0.2
2016-Sep-21 05:31N 59°54' E 030°14'0 0.0
2016-Sep-21 03:31N 59°54' E 030°14'0 0.0
2016-Sep-21 02:31N 59°54' E 030°14'1 0.2
2016-Sep-20 17:31N 59°52' E 030°12'0 0.0
2016-Sep-20 08:22N 59°52' E 030°12'0 0.0
2016-Sep-20 06:16N 59°52' E 030°12'44 2.8
2016-Sep-19 14:19N 60°02' E 028°47'911.4
2016-Sep-19 13:33N 60°03' E 028°29'1111.0
2016-Sep-19 12:33N 60°08' E 028°10'1111.4
2016-Sep-19 11:33N 60°11' E 027°48'2211.1
2016-Sep-19 09:33N 59°60' E 027°09'4513.3
2016-Sep-19 06:11N 59°52' E 025°41'3111.2
2016-Sep-19 03:24N 59°45' E 024°41'911.1
2016-Sep-19 02:33N 59°43' E 024°22'2211.1
2016-Sep-19 00:33N 59°36' E 023°41'38210.9
2016-Sep-17 13:33N 55°26' E 014°45'1010.1
2016-Sep-17 12:33N 55°19' E 014°32'2110.3
2016-Sep-17 10:33N 55°02' E 014°10'1110.5
2016-Sep-17 09:33N 54°59' E 013°53'1414.1
2016-Sep-17 08:33N 54°54' E 013°29'1010.4
2016-Sep-17 07:33N 54°50' E 013°12'2110.3
2016-Sep-17 05:34N 54°44' E 012°38'10 9.6
2016-Sep-17 04:33N 54°39' E 012°25'31 7.8
2016-Sep-17 00:34N 54°29' E 011°34'  
Track history (hours):
 
Tides and Currents Weather Stations Pressure Air Temp Water Temp Dewpoint Dewpoint Depression Visibility Wind Speed Wind Dir Waves Ship Positions

Suederoog

Last reported at 2016-Sep-26 20:31 UTC. Time now 2016-Sep-27 00:13 UTC.
Position N 53°32' E 009°57'.

Length 161 m; draft 9.4 m.

Type: Cargo ship. MMSI: 236300000.

Date/timePositionNaut miles runAvg speedWind from/ knotsBaromVisibWave heightAir tempDewpointWater temp
2016-Sep-26 20:31N 53°32' E 009°57'0 0.0
2016-Sep-26 19:31N 53°32' E 009°57'0 0.0
2016-Sep-26 15:31N 53°32' E 009°57'0 0.0
2016-Sep-26 13:31N 53°32' E 009°57'0 0.0
2016-Sep-26 11:31N 53°32' E 009°57'0 0.0
2016-Sep-26 08:31N 53°32' E 009°57'0 0.0
2016-Sep-26 02:31N 53°32' E 009°57'0 0.0
2016-Sep-26 01:31N 53°32' E 009°57'0 0.0
2016-Sep-26 00:32N 53°32' E 009°57'0 0.0
2016-Sep-25 21:31N 53°32' E 009°57'2 0.4
2016-Sep-25 17:33N 53°32' E 009°54'0 0.3
2016-Sep-25 16:31N 53°32' E 009°55'0 0.0
2016-Sep-25 15:31N 53°32' E 009°55'0 0.0
2016-Sep-25 14:31N 53°32' E 009°55'0 0.0
2016-Sep-25 12:31N 53°32' E 009°55'0 0.0
2016-Sep-25 11:31N 53°32' E 009°55'0 0.0
2016-Sep-25 10:31N 53°32' E 009°55'0 0.0
2016-Sep-25 09:31N 53°32' E 009°55'0 0.0
2016-Sep-25 07:31N 53°32' E 009°55'0 0.0
2016-Sep-25 04:33N 53°32' E 009°55'35 8.7
2016-Sep-25 00:33N 53°54' E 009°09'8 3.9
2016-Sep-24 22:33N 53°60' E 009°17'7 6.8
2016-Sep-24 21:33N 54°06' E 009°20'11 5.5
2016-Sep-24 19:33N 54°13' E 009°35'6 5.6
2016-Sep-24 18:33N 54°17' E 009°40'6 6.0
2016-Sep-24 17:33N 54°22' E 009°48'6 5.9
2016-Sep-24 16:33N 54°21' E 009°58'7 3.2
2016-Sep-24 14:31N 54°22' E 010°09'14 7.3
2016-Sep-24 12:33N 54°32' E 010°26'2311.7
2016-Sep-24 10:33N 54°36' E 011°06'1111.2
2016-Sep-24 09:33N 54°32' E 011°24'8312.9
2016-Sep-24 03:07N 54°59' E 013°40'916.5
2016-Sep-24 02:33N 55°02' E 013°55'1616.3
2016-Sep-24 01:34N 55°13' E 014°17'1717.0
2016-Sep-24 00:34N 55°26' E 014°35'38516.7
2016-Sep-23 01:28N 59°40' E 023°35'1617.3
2016-Sep-23 00:33N 59°44' E 024°06'1717.2
2016-Sep-22 23:33N 59°49' E 024°39'5217.0
2016-Sep-22 20:29N 60°05' E 026°17'27 3.4
2016-Sep-22 12:33N 60°25' E 026°55'0 0.0
2016-Sep-22 04:33N 60°25' E 026°55'0 0.0
2016-Sep-22 03:33N 60°25' E 026°55'0 0.0
2016-Sep-22 00:33N 60°25' E 026°55'0 0.0
2016-Sep-21 23:33N 60°25' E 026°55'0 0.0
2016-Sep-21 22:33N 60°25' E 026°55'22 7.2
2016-Sep-21 19:28N 60°09' E 026°24'26 9.0
2016-Sep-21 16:32N 60°03' E 027°15'8111.6
2016-Sep-21 09:33N 59°56' E 029°56'9 8.9
2016-Sep-21 08:33N 59°53' E 030°12'1 0.2
2016-Sep-21 05:31N 59°54' E 030°14'0 0.0
2016-Sep-21 03:31N 59°54' E 030°14'0 0.0
2016-Sep-21 02:31N 59°54' E 030°14'1 0.2
2016-Sep-20 17:31N 59°52' E 030°12'0 0.0
2016-Sep-20 08:22N 59°52' E 030°12'0 0.0
2016-Sep-20 06:16N 59°52' E 030°12'44 2.8
2016-Sep-19 14:19N 60°02' E 028°47'911.4
2016-Sep-19 13:33N 60°03' E 028°29'1111.0
2016-Sep-19 12:33N 60°08' E 028°10'1111.4
2016-Sep-19 11:33N 60°11' E 027°48'2211.1
2016-Sep-19 09:33N 59°60' E 027°09'4513.3
2016-Sep-19 06:11N 59°52' E 025°41'3111.2
2016-Sep-19 03:24N 59°45' E 024°41'911.1
2016-Sep-19 02:33N 59°43' E 024°22'2211.1
2016-Sep-19 00:33N 59°36' E 023°41'38210.9
2016-Sep-17 13:33N 55°26' E 014°45'1010.1
2016-Sep-17 12:33N 55°19' E 014°32'2110.3
2016-Sep-17 10:33N 55°02' E 014°10'1110.5
2016-Sep-17 09:33N 54°59' E 013°53'1414.1
2016-Sep-17 08:33N 54°54' E 013°29'1010.4
2016-Sep-17 07:33N 54°50' E 013°12'2110.3
2016-Sep-17 05:34N 54°44' E 012°38'10 9.6
2016-Sep-17 04:33N 54°39' E 012°25'31 7.8
2016-Sep-17 00:34N 54°29' E 011°34'  

Dump ship's entire track history